Sherbrooke, Canada
Current Conditions -  °F | °C
As of 4:00 AM on Saturday 22 Nov 2014 (Local Time) from CYSC Reporting Station
Overcast Overcast  
Wind Chill: 18°   Ceiling: 4300
Heat Index: 18°   Visibility: 9mi
Dew Point: 12°   Wind: 3mph
Humidity: 79%   Direction: 190°S
Pressure: 30.23"   Gusts: NA
Location:  45.4°N, 71.89°W
Report Text: CYSC 220900Z AUTO 19003KT 160V230 9SM FEW030 OVC043 M08/M11 A3023 RMK SLP253
Loading
Personal Weather Stations






























Interactive Weather Map New forecast layout! Learn more

10-Day Weather Forecast

Advertisements
Track Severe Weather on mobile